createdAt,value
2019-03-20T00:00:22.170Z,0.9
2019-03-20T00:05:18.084Z,3.2
2019-03-20T00:10:17.249Z,2.2
2019-03-20T00:15:17.417Z,3.1
2019-03-20T00:20:16.780Z,4.7
2019-03-20T00:25:17.557Z,1.5
2019-03-20T00:30:27.468Z,9.4
2019-03-20T00:35:16.791Z,2.1
2019-03-20T00:40:17.141Z,2.7
2019-03-20T00:45:18.313Z,8.4
2019-03-20T00:50:17.184Z,4.3
2019-03-20T00:55:22.574Z,2.5
2019-03-20T01:00:16.668Z,2.7
2019-03-20T01:05:26.894Z,15
2019-03-20T01:10:27.610Z,1.8
2019-03-20T01:15:18.667Z,4.2
2019-03-20T01:20:27.261Z,3.4
2019-03-20T01:25:23.430Z,6.9
2019-03-20T01:30:20.979Z,2.7
2019-03-20T01:35:23.919Z,2
2019-03-20T01:40:16.870Z,3.2
2019-03-20T01:45:20.481Z,2.3
2019-03-20T01:50:17.570Z,1
2019-03-20T01:55:20.000Z,18.2
2019-03-20T02:00:22.153Z,1.7
2019-03-20T02:05:36.555Z,1.2
2019-03-20T02:10:22.077Z,2.8
2019-03-20T02:15:17.057Z,0.9
2019-03-20T02:20:22.314Z,0.8
2019-03-20T02:25:18.831Z,2.5
2019-03-20T02:30:23.591Z,1.8
2019-03-20T02:35:16.754Z,3.4
2019-03-20T02:40:17.986Z,0.7
2019-03-20T02:45:17.451Z,0.9
2019-03-20T02:50:17.443Z,0.6
2019-03-20T02:55:23.673Z,7.3
2019-03-20T03:00:17.053Z,1.1
2019-03-20T03:05:22.865Z,6.3
2019-03-20T03:10:22.122Z,6.4
2019-03-20T03:15:19.351Z,3.7
2019-03-20T03:20:18.974Z,14.7
2019-03-20T03:25:23.503Z,1.8
2019-03-20T03:30:17.227Z,0.8
2019-03-20T03:35:19.280Z,1.5
2019-03-20T03:40:18.477Z,2.1
2019-03-20T03:45:17.876Z,1.7
2019-03-20T03:50:16.916Z,5.1
2019-03-20T03:55:18.082Z,16.9
2019-03-20T04:00:17.243Z,2.7
2019-03-20T04:05:16.832Z,16
2019-03-20T04:10:17.408Z,5
2019-03-20T04:15:17.529Z,14
2019-03-20T04:20:21.256Z,20.9
2019-03-20T04:25:17.453Z,4.1
2019-03-20T04:30:31.039Z,12.6
2019-03-20T04:35:17.533Z,5.4
2019-03-20T04:40:22.982Z,15.7
2019-03-20T04:45:17.343Z,7
2019-03-20T04:50:17.512Z,12.7
2019-03-20T04:55:23.512Z,14.2
2019-03-20T05:00:16.931Z,12.2
2019-03-20T05:05:17.133Z,11.8
2019-03-20T05:10:18.381Z,12.9
2019-03-20T05:15:18.902Z,14.7
2019-03-20T05:20:17.262Z,6.6
2019-03-20T05:25:17.382Z,8.5
2019-03-20T05:30:19.308Z,9.4
2019-03-20T05:40:27.511Z,6.7
2019-03-20T05:45:27.411Z,10.4
2019-03-20T05:50:23.751Z,13.7
2019-03-20T05:55:17.009Z,12
2019-03-20T06:00:17.501Z,12.5
2019-03-20T06:05:17.931Z,15.9
2019-03-20T06:10:22.744Z,17.5
2019-03-20T06:15:20.562Z,9.5
2019-03-20T06:20:17.084Z,23.7
2019-03-20T06:25:32.357Z,15.6
2019-03-20T06:30:32.519Z,18.6
2019-03-20T06:35:22.508Z,14.3
2019-03-20T06:40:16.801Z,17.5
2019-03-20T06:45:17.138Z,20
2019-03-20T06:50:16.788Z,21.1
2019-03-20T06:55:32.497Z,22.1
2019-03-20T07:00:17.329Z,33.2
2019-03-20T07:05:17.595Z,25
2019-03-20T07:10:26.876Z,24.4
2019-03-20T07:15:26.914Z,24.8
2019-03-20T07:20:17.579Z,47
2019-03-20T07:25:17.106Z,25.8
2019-03-20T07:30:17.107Z,25.5
2019-03-20T07:35:27.297Z,23.5
2019-03-20T07:40:16.705Z,12.4
2019-03-20T07:45:24.851Z,14.8
2019-03-20T07:50:26.990Z,25.5
2019-03-20T07:55:17.196Z,27.6
2019-03-20T08:00:18.533Z,36.2
2019-03-20T08:05:28.650Z,27.9
2019-03-20T08:10:16.801Z,31.5
2019-03-20T08:15:24.559Z,25.8
2019-03-20T08:20:16.909Z,34.1
2019-03-20T08:25:18.797Z,25
2019-03-20T08:30:16.757Z,25.8
2019-03-20T08:35:17.015Z,29.6
2019-03-20T08:40:27.439Z,25.5
2019-03-20T08:45:17.346Z,26.3
2019-03-20T08:50:17.719Z,16.9
2019-03-20T08:55:16.764Z,28
2019-03-20T09:00:28.091Z,15.6
2019-03-20T09:05:27.265Z,26.1
2019-03-20T09:10:16.704Z,32.1
2019-03-20T09:15:17.614Z,23.8
2019-03-20T09:20:16.742Z,25.9
2019-03-20T09:25:16.673Z,23.4
2019-03-20T09:30:17.811Z,17.4
2019-03-20T09:35:21.801Z,23.7
2019-03-20T09:40:16.781Z,25.5
2019-03-20T09:45:19.520Z,24.1
2019-03-20T09:50:17.699Z,27.6
2019-03-20T09:55:22.070Z,23.3
2019-03-20T10:00:17.188Z,21.1
2019-03-20T10:05:22.472Z,22.8
2019-03-20T10:10:16.660Z,23.2
2019-03-20T10:15:17.598Z,39.1
2019-03-20T10:20:17.496Z,24.2
2019-03-20T10:25:16.605Z,23.3
2019-03-20T10:30:17.543Z,15.5
2019-03-20T10:35:17.573Z,23
2019-03-20T10:40:17.834Z,27.6
2019-03-20T10:45:16.962Z,15
2019-03-20T10:50:17.060Z,24.7
2019-03-20T10:55:17.053Z,25.6
2019-03-20T11:00:21.912Z,25
2019-03-20T11:05:16.893Z,36.6
2019-03-20T11:10:17.479Z,27.9
2019-03-20T11:15:16.728Z,23.9
2019-03-20T11:20:31.983Z,28.5
2019-03-20T11:25:18.007Z,24.8
2019-03-20T11:30:18.060Z,27.8
2019-03-20T11:35:22.030Z,29.2
2019-03-20T11:40:22.470Z,25.2
2019-03-20T11:45:17.609Z,30
2019-03-20T11:50:18.937Z,27.7
2019-03-20T11:55:16.896Z,33.7
2019-03-20T12:00:17.370Z,30.3
2019-03-20T12:05:22.511Z,29.1
2019-03-20T12:10:16.720Z,30.7
2019-03-20T12:15:16.683Z,28.4
2019-03-20T12:20:17.108Z,52.3
2019-03-20T12:25:22.035Z,31.4
2019-03-20T12:30:19.999Z,28
2019-03-20T12:35:17.161Z,35.2
2019-03-20T12:40:17.802Z,35.9
2019-03-20T12:45:26.686Z,27.2
2019-03-20T12:50:16.911Z,35.2
2019-03-20T12:55:19.023Z,22.1
2019-03-20T13:00:22.258Z,37.6
2019-03-20T13:05:17.470Z,32
2019-03-20T13:10:16.629Z,29
2019-03-20T13:15:21.889Z,34.4
2019-03-20T13:20:17.418Z,35
2019-03-20T13:25:16.606Z,63.2
2019-03-20T13:30:20.211Z,37.4
2019-03-20T13:35:23.600Z,41.5
2019-03-20T13:40:17.105Z,36.2
2019-03-20T13:45:18.406Z,34.2
2019-03-20T13:50:22.437Z,41.4
2019-03-20T13:55:17.388Z,34.9
2019-03-20T14:00:17.518Z,35.7
2019-03-20T14:05:16.676Z,37.3
2019-03-20T14:10:24.822Z,58.8
2019-03-20T14:15:16.687Z,35.6
2019-03-20T14:20:16.811Z,54.9
2019-03-20T14:25:16.829Z,37.5
2019-03-20T14:30:17.790Z,34.7
2019-03-20T14:35:22.162Z,38.7
2019-03-20T14:40:17.629Z,38.7
2019-03-20T14:45:17.792Z,38.4
2019-03-20T14:50:17.019Z,40.3
2019-03-20T14:55:22.976Z,41.1
2019-03-20T15:00:17.199Z,35.8
2019-03-20T15:05:22.606Z,36.4
2019-03-20T15:10:16.989Z,37.5
2019-03-20T15:15:16.963Z,38.4
2019-03-20T15:20:17.065Z,38.3
2019-03-20T15:25:17.051Z,34.3
2019-03-20T15:30:18.054Z,39.2
2019-03-20T15:35:17.310Z,51.4
2019-03-20T15:40:16.731Z,38.2
2019-03-20T15:45:21.759Z,42.3
2019-03-20T15:50:16.856Z,37.1
2019-03-20T15:55:17.953Z,39.8
2019-03-20T16:00:17.689Z,42.6
2019-03-20T16:05:16.749Z,41.3
2019-03-20T16:10:16.898Z,45
2019-03-20T16:15:17.098Z,34.2
2019-03-20T16:20:22.549Z,41.4
2019-03-20T16:25:17.569Z,42
2019-03-20T16:30:17.028Z,44.1
2019-03-20T16:35:16.994Z,44.1
2019-03-20T16:40:17.070Z,44.4
2019-03-20T16:45:17.137Z,46.7
2019-03-20T16:50:17.059Z,33
2019-03-20T16:55:21.988Z,48.1
2019-03-20T17:00:16.666Z,50.9
2019-03-20T17:05:17.200Z,51.9
2019-03-20T17:10:24.163Z,33.8
2019-03-20T17:15:17.251Z,53.6
2019-03-20T17:20:17.601Z,52.2
2019-03-20T17:25:22.710Z,31.3
2019-03-20T17:30:22.099Z,52.8
2019-03-20T17:35:21.119Z,53.2
2019-03-20T17:40:16.859Z,58.5
2019-03-20T17:45:27.449Z,50
2019-03-20T17:50:22.640Z,54.3
2019-03-20T17:55:17.070Z,55.9
2019-03-20T18:00:17.326Z,38.1
2019-03-20T18:05:17.349Z,57
2019-03-20T18:10:17.699Z,57.4
2019-03-20T18:15:16.763Z,58.3
2019-03-20T18:20:17.138Z,53.4
2019-03-20T18:25:22.103Z,47.9
2019-03-20T18:30:22.147Z,54.7
2019-03-20T18:35:17.137Z,55.6
2019-03-20T18:40:23.434Z,52.5
2019-03-20T18:45:17.510Z,53.1
2019-03-20T18:50:22.451Z,55.9
2019-03-20T18:55:17.484Z,55.5
2019-03-20T19:00:22.402Z,55.2
2019-03-20T19:05:17.763Z,56.7
2019-03-20T19:10:17.149Z,53.7
2019-03-20T19:15:16.669Z,58.2
2019-03-20T19:20:16.842Z,58.8
2019-03-20T19:25:16.900Z,55.4
2019-03-20T19:30:16.837Z,54.5
2019-03-20T19:35:17.997Z,57.6
2019-03-20T19:40:21.047Z,45
2019-03-20T19:45:21.996Z,57
2019-03-20T19:50:17.029Z,51.6
2019-03-20T19:55:21.943Z,58.8
2019-03-20T20:00:16.923Z,44.3
2019-03-20T20:05:16.925Z,62.4
2019-03-20T20:10:18.043Z,54.6
2019-03-20T20:15:22.307Z,48.4
2019-03-20T20:20:17.562Z,59.3
2019-03-20T20:25:16.918Z,60.6
2019-03-20T20:30:17.164Z,42.8
2019-03-20T20:35:22.129Z,61.1
2019-03-20T20:40:17.299Z,62.1
2019-03-20T20:45:17.481Z,60.8
2019-03-20T20:50:22.088Z,61.9
2019-03-20T20:55:17.230Z,62.7
2019-03-20T21:00:22.792Z,58.6
2019-03-20T21:05:16.937Z,42.8
2019-03-20T21:10:17.319Z,57.5
2019-03-20T21:15:21.755Z,53.6
2019-03-20T21:20:17.069Z,57.1
2019-03-20T21:25:22.594Z,59.4
2019-03-20T21:30:22.627Z,60.7
2019-03-20T21:35:17.566Z,57.4
2019-03-20T21:40:17.440Z,58.7
2019-03-20T21:45:17.504Z,58.8
2019-03-20T21:50:24.210Z,59.3
2019-03-20T21:55:18.181Z,46.1
2019-03-20T22:00:17.959Z,59.9
2019-03-20T22:05:22.973Z,58.2
2019-03-20T22:10:17.671Z,60.4
2019-03-20T22:15:16.942Z,61.7
2019-03-20T22:20:17.067Z,61
2019-03-20T22:25:17.179Z,62.7
2019-03-20T22:30:17.310Z,38.8
2019-03-20T22:35:17.337Z,62.7
2019-03-20T22:40:24.799Z,38.6
2019-03-20T22:45:22.290Z,69.3
2019-03-20T22:50:17.426Z,54.5
2019-03-20T22:55:22.347Z,64.6
2019-03-20T23:00:16.990Z,64.7
2019-03-20T23:05:18.844Z,61.8
2019-03-20T23:10:16.916Z,65.6
2019-03-20T23:15:17.203Z,66.6
2019-03-20T23:20:17.424Z,73.9
2019-03-20T23:25:21.812Z,53
2019-03-20T23:30:16.765Z,70.5
2019-03-20T23:35:17.997Z,51.5
2019-03-20T23:40:17.399Z,50.4
2019-03-20T23:45:18.671Z,77.3
2019-03-20T23:50:17.840Z,83.9
2019-03-20T23:55:16.884Z,78.4
